Terminal Aerodrome Forecast
Issued by NWS Melbourne, FL

Home | Current Version | Previous Version | Text Only | Print | Product List | Glossary On
Versions: 1 2 3 4 5 6 7 8 9 10 11 12 13 14 15
903
FTUS42 KMLB 301735
TAFDAB
TAF
KDAB 301735Z 3018/3118 07007KT P6SM VCTS SCT040CB SCT060
      TEMPO 3018/3020 VRB15G30KT 3SM TSRA BKN030CB
     FM302000 10009KT P6SM VCTS SCT040CB SCT100 SCT250
     FM310000 12006KT P6SM FEW030 BKN120
     FM311400 27005KT P6SM SCT035=

USA.gov is the U.S. government's official web portal to all federal, state and local government web resources and services.